Terminal Aerodrome Forecast
Issued by NWS

Home | Current Version | Previous Version | Text Only | Print | Product List | Glossary On
Versions: 1 2 3 4 5 6 7 8 9 10 11 12 13 14 15 16 17 18 19 20 21 22 23 24
000
FTUS43 KLSX 160300 AAB
TAFCPS
TAF AMD
KCPS 160303Z 1603/1624 35006KT P6SM BKN012 OVC040
     FM160900 36005KT 3SM BR OVC007
     FM161400 36005KT 6SM BR OVC012
     FM161600 01005KT P6SM SCT025=

USA.gov is the U.S. government's official web portal to all federal, state and local government web resources and services.